Carnival Splendor — 3EUS — position and weather

sailwx.info

Track history (hours):
 
Tides and Currents Weather Stations Pressure Air Temp Water Temp Dewpoint Dewpoint Depression Visibility Wind Speed Wind Dir Waves Ship Positions

Carnival Splendor

Last reported at 2016-Dec-04 23:33 UTC. Time now 2016-Dec-08 06:02 UTC.
Position N 25°33' W 079°56'.

Length 290 m; draft 8.3 m.

Type: Ship. MMSI: 372808000.

Date/timePositionNaut miles runAvg speedWind from/ knotsBaromVisibWave heightAir tempDewpointWater temp
2016-Dec-04 23:33N 25°33' W 079°56'1414.4
2016-Dec-04 22:33N 25°46' W 080°04'6 5.9
2016-Dec-04 21:33N 25°47' W 080°11'0 0.5
2016-Dec-04 20:32N 25°47' W 080°10'0 0.0
2016-Dec-04 19:26N 25°47' W 080°10'0 0.0
2016-Dec-04 18:31N 25°47' W 080°10'0 0.0
2016-Dec-04 17:31N 25°47' W 080°10'0 0.0
2016-Dec-04 16:31N 25°47' W 080°10'0 0.0
2016-Dec-04 15:33N 25°47' W 080°10'0 0.0
2016-Dec-04 14:33N 25°47' W 080°10'0 0.0
2016-Dec-04 13:32N 25°47' W 080°10'0 0.0
2016-Dec-04 12:32N 25°47' W 080°10'0 0.0
2016-Dec-04 11:31N 25°47' W 080°10'0 0.0
2016-Dec-04 10:33N 25°47' W 080°10'9 9.1
2016-Dec-04 09:33N 25°47' W 080°00'1110.9
2016-Dec-04 08:33N 25°38' W 079°55'1515.3
2016-Dec-04 07:33N 25°23' W 079°50'  
2016-Nov-29 22:33N 20°28' W 087°01'3 2.7
2016-Nov-29 21:33N 20°29' W 086°59'0 0.0
2016-Nov-29 20:33N 20°29' W 086°59'0 0.0
2016-Nov-29 19:32N 20°29' W 086°59'0 0.0
2016-Nov-29 18:32N 20°29' W 086°59'0 0.0
2016-Nov-29 17:31N 20°29' W 086°59'0 0.0
2016-Nov-29 16:31N 20°29' W 086°59'0 0.0
2016-Nov-29 15:33N 20°29' W 086°59'0 0.0
2016-Nov-29 14:33N 20°29' W 086°59'0 0.0
2016-Nov-29 13:33N 20°29' W 086°59'49213.5
2016-Nov-28 01:15N 25°28' W 079°55'1014.8
2016-Nov-28 00:34N 25°38' W 079°57'1211.7
2016-Nov-27 23:33N 25°45' W 080°07'3 3.1
2016-Nov-27 22:31N 25°47' W 080°10'0 0.0
2016-Nov-27 21:33N 25°47' W 080°10'0 0.0
2016-Nov-27 20:33N 25°47' W 080°10'0 0.0
2016-Nov-27 19:32N 25°47' W 080°10'0 0.0
2016-Nov-27 18:32N 25°47' W 080°10'0 0.0
2016-Nov-27 17:32N 25°47' W 080°10'0 0.0
2016-Nov-27 16:31N 25°47' W 080°10'0 0.0
2016-Nov-27 15:31N 25°47' W 080°10'0 0.0
2016-Nov-27 14:31N 25°47' W 080°10'0 0.0
2016-Nov-27 13:33N 25°47' W 080°10'0 0.0
2016-Nov-27 12:33N 25°47' W 080°10'0 0.0
2016-Nov-27 11:33N 25°47' W 080°10'2 2.0
2016-Nov-27 10:33N 25°46' W 080°08'10 9.8
2016-Nov-27 09:33N 25°44' W 079°58'1717.4
2016-Nov-27 08:33N 25°27' W 079°51'  
Track history (hours):
 
Tides and Currents Weather Stations Pressure Air Temp Water Temp Dewpoint Dewpoint Depression Visibility Wind Speed Wind Dir Waves Ship Positions

Carnival Splendor

Last reported at 2016-Dec-04 23:33 UTC. Time now 2016-Dec-08 06:02 UTC.
Position N 25°33' W 079°56'.

Length 290 m; draft 8.3 m.

Type: Ship. MMSI: 372808000.

Date/timePositionNaut miles runAvg speedWind from/ knotsBaromVisibWave heightAir tempDewpointWater temp
2016-Dec-04 23:33N 25°33' W 079°56'1414.4
2016-Dec-04 22:33N 25°46' W 080°04'6 5.9
2016-Dec-04 21:33N 25°47' W 080°11'0 0.5
2016-Dec-04 20:32N 25°47' W 080°10'0 0.0
2016-Dec-04 19:26N 25°47' W 080°10'0 0.0
2016-Dec-04 18:31N 25°47' W 080°10'0 0.0
2016-Dec-04 17:31N 25°47' W 080°10'0 0.0
2016-Dec-04 16:31N 25°47' W 080°10'0 0.0
2016-Dec-04 15:33N 25°47' W 080°10'0 0.0
2016-Dec-04 14:33N 25°47' W 080°10'0 0.0
2016-Dec-04 13:32N 25°47' W 080°10'0 0.0
2016-Dec-04 12:32N 25°47' W 080°10'0 0.0
2016-Dec-04 11:31N 25°47' W 080°10'0 0.0
2016-Dec-04 10:33N 25°47' W 080°10'9 9.1
2016-Dec-04 09:33N 25°47' W 080°00'1110.9
2016-Dec-04 08:33N 25°38' W 079°55'1515.3
2016-Dec-04 07:33N 25°23' W 079°50'  
2016-Nov-29 22:33N 20°28' W 087°01'3 2.7
2016-Nov-29 21:33N 20°29' W 086°59'0 0.0
2016-Nov-29 20:33N 20°29' W 086°59'0 0.0
2016-Nov-29 19:32N 20°29' W 086°59'0 0.0
2016-Nov-29 18:32N 20°29' W 086°59'0 0.0
2016-Nov-29 17:31N 20°29' W 086°59'0 0.0
2016-Nov-29 16:31N 20°29' W 086°59'0 0.0
2016-Nov-29 15:33N 20°29' W 086°59'0 0.0
2016-Nov-29 14:33N 20°29' W 086°59'0 0.0
2016-Nov-29 13:33N 20°29' W 086°59'49213.5
2016-Nov-28 01:15N 25°28' W 079°55'1014.8
2016-Nov-28 00:34N 25°38' W 079°57'1211.7
2016-Nov-27 23:33N 25°45' W 080°07'3 3.1
2016-Nov-27 22:31N 25°47' W 080°10'0 0.0
2016-Nov-27 21:33N 25°47' W 080°10'0 0.0
2016-Nov-27 20:33N 25°47' W 080°10'0 0.0
2016-Nov-27 19:32N 25°47' W 080°10'0 0.0
2016-Nov-27 18:32N 25°47' W 080°10'0 0.0
2016-Nov-27 17:32N 25°47' W 080°10'0 0.0
2016-Nov-27 16:31N 25°47' W 080°10'0 0.0
2016-Nov-27 15:31N 25°47' W 080°10'0 0.0
2016-Nov-27 14:31N 25°47' W 080°10'0 0.0
2016-Nov-27 13:33N 25°47' W 080°10'0 0.0
2016-Nov-27 12:33N 25°47' W 080°10'0 0.0
2016-Nov-27 11:33N 25°47' W 080°10'2 2.0
2016-Nov-27 10:33N 25°46' W 080°08'10 9.8
2016-Nov-27 09:33N 25°44' W 079°58'1717.4
2016-Nov-27 08:33N 25°27' W 079°51'  

Dump ship's entire track history